This is the latest recevied weather packets stored in our database for station/object VE4JMP. If no packets are shown the sender has not sent any weather packets the latest 10 day(s).
| Time | Temp. | Humidity | Pressure | Rain* | Wind** | Luminosity | Snow |
|---|---|---|---|---|---|---|---|
| 1778099446 | 6.11° C | 50% | 1015.7 hPa | 0 mm | - | - | - |
| 1778096428 | 6.67° C | 48% | 1016.1 hPa | 0 mm | - | - | - |
| 1778090432 | 5° C | 53% | 1016.8 hPa | 0 mm | - | - | - |
| 1778088031 | 4.44° C | 54% | 1017.1 hPa | 0 mm | - | - | - |
| 1778085623 | 3.89° C | 58% | 1017.3 hPa | 0 mm | - | - | - |
| 1778085035 | 3.33° C | 59% | 1017.3 hPa | 0 mm | - | - | - |
| 1778081422 | 2.22° C | 62% | 1017.3 hPa | 0 mm | - | - | - |
| 1778075427 | 0.56° C | 68% | 1017.5 hPa | 0 mm | - | - | - |
| 1778071833 | -0.56° C | 75% | 1017.5 hPa | 0 mm | - | - | - |
| 1778070027 | -0.56° C | 72% | 1017.3 hPa | 0 mm | - | - | - |
| 1778067646 | -1.11° C | 78% | 1017.1 hPa | 0 mm | - | - | - |
| 1778064032 | -1.11° C | 79% | 1016.9 hPa | 0 mm | - | - | - |
| 1778060420 | -1.11° C | 83% | 1016.8 hPa | 0 mm | - | - | - |
| 1778059229 | -1.11° C | 83% | 1016.8 hPa | 0 mm | - | - | - |
| 1778055617 | -1.11° C | 83% | 1016.8 hPa | 0 mm | - | - | - |
| 1778055021 | -1.11° C | 84% | 1016.8 hPa | 0 mm | - | - | - |
| 1778050831 | -1.11° C | 91% | 1016.8 hPa | 0 mm | - | - | - |
| 1778046016 | -1.67° C | 86% | 1016.8 hPa | 0 mm | - | - | - |
| 1778045432 | -1.11° C | 83% | 1016.8 hPa | 0 mm | - | - | - |
| 1778043646 | -0.56° C | 84% | 1016.8 hPa | 0 mm | - | - | - |
| 1778039419 | 0.56° C | 76% | 1016.8 hPa | 0 mm | - | - | - |
| 1778037651 | 0.56° C | 74% | 1016.8 hPa | 0 mm | - | - | - |
| 1778037037 | 0.56° C | 73% | 1016.6 hPa | 0 mm | - | - | - |
| 1778035216 | 1.11° C | 71% | 1016.4 hPa | 0 mm | - | - | - |
| 1778033428 | 1.11° C | 70% | 1016.1 hPa | 0 mm | - | - | - |
* Rain latest hour (hover to see other rain measurements)
** Current wind speed in m/s (hover to see current wind gust speed)